06FA weather

William P Gwinn Airport
Jupiter, Florida, United States

Public forecast

Using degrees Fahrenheit for public forecast. Weather courtesy of forecast.io.

METAR (pilot weather report)

Closest report is Witham Field, 17.4 nm (32.2 km) NNE. Retrieved 2019/06/25 08:35 UTC (0 seconds ago):

KSUA 250835Z AUTO 21004KT 10SM BKN070 OVC100 27/23 A3001 RMK AO2

TAF (pilot weather forecast)

Closest forecast is Witham Field, 17.4 nm (32.2 km) NNE. Retrieved 2019/06/25 06:24 UTC (2 hours ago):

TAF KSUA 250520Z 2506/2606 20003KT P6SM FEW250 FM251400 29006KT P6SM SCT030 SCT250 FM251730 07009KT P6SM SCT035 FM260200 23003KT P6SM BKN050 BKN250